Redstar, Mississippi
Current Conditions -  °F | °C
As of 8:15 AM on Wednesday 28 Jan 2015 (Local Time) from K1R7 Reporting Station
Clear Clear  
Wind Chill: 41°   Ceiling: Unl
Heat Index: 45°   Visibility: NA
Dew Point: 36°   Wind: 6mph
Humidity: 71%   Direction: 90°E
Pressure: 30.28"   Gusts: NA
Location:  31.5898°N, 90.4722°W
Report Text: K1R7 281415Z AUTO 09005KT CLR 07/02 A3028 RMK AO2
Loading
Personal Weather Stations






























Interactive Weather Map New forecast layout! Learn more

10-Day Weather Forecast

Advertisements
Track Severe Weather on mobile